Time;durP1;ratioP1;P1;durP2;ratioP2;P2;SDS_P1;SDS_P2;PMS_P1;PMS_P2;Temp;Humidity;BMP_temperature;BMP_pressure;BME280_temperature;BME280_humidity;BME280_pressure;Samples;Min_cycle;Max_cycle;Signal;HPM_P1;HPM_P2
2022/06/24 00:02:59;;;;;;;6.45;1.83;;;21.50;99.90;;;;;;6938700;28;20453;-79
2022/06/24 00:06:21;;;;;;;7.05;1.70;;;21.50;99.90;;;;;;6939279;28;20817;-80
2022/06/24 00:09:44;;;;;;;6.63;1.83;;;21.60;99.90;;;;;;6938555;28;20945;-80
2022/06/24 00:13:08;;;;;;;6.47;2.00;;;21.60;99.90;;;;;;6937716;28;20817;-83
2022/06/24 00:16:30;;;;;;;5.75;1.40;;;21.60;99.90;;;;;;6940058;28;20437;-82
2022/06/24 00:19:56;;;;;;;5.40;1.50;;;21.60;99.90;;;;;;6942130;28;20427;-81
2022/06/24 00:23:21;;;;;;;5.22;1.50;;;21.70;99.90;;;;;;6942601;28;20439;-81
2022/06/24 00:26:43;;;;;;;6.22;1.50;;;21.70;99.90;;;;;;6943404;28;20435;-81
2022/06/24 00:30:12;;;;;;;4.85;1.50;;;21.70;99.90;;;;;;6944351;28;20442;-81
2022/06/24 00:33:36;;;;;;;6.15;1.60;;;21.70;99.90;;;;;;6944257;28;20435;-81
2022/06/24 00:36:58;;;;;;;7.47;1.50;;;21.80;99.90;;;;;;6943311;28;20506;-79
2022/06/24 00:40:26;;;;;;;6.15;1.58;;;21.70;99.90;;;;;;6944528;28;20471;-81
2022/06/24 00:43:54;;;;;;;5.47;1.40;;;21.60;99.90;;;;;;6942250;28;20439;-80
2022/06/24 00:47:19;;;;;;;8.00;1.92;;;21.60;99.90;;;;;;6943878;28;20439;-79
2022/06/24 00:50:45;;;;;;;6.43;1.67;;;21.60;99.90;;;;;;6943121;28;20589;-81
2022/06/24 00:54:10;;;;;;;7.18;1.67;;;21.40;99.90;;;;;;6943506;28;20465;-79
2022/06/24 00:57:36;;;;;;;7.47;1.80;;;21.50;99.90;;;;;;6943122;28;20467;-82
2022/06/24 01:00:58;;;;;;;6.15;1.50;;;21.50;99.90;;;;;;6944770;28;20427;-81
2022/06/24 01:04:31;;;;;;;6.35;1.50;;;21.50;99.90;;;;;;6940387;28;20928;-81
2022/06/24 01:07:53;;;;;;;8.38;1.83;;;21.40;99.90;;;;;;6944445;28;20426;-81
2022/06/24 01:11:24;;;;;;;5.82;1.40;;;21.40;99.90;;;;;;6942102;28;20442;-80
2022/06/24 01:14:46;;;;;;;6.55;1.80;;;21.40;99.90;;;;;;6943142;28;20958;-81
2022/06/24 01:18:09;;;;;;;5.82;1.60;;;21.30;99.90;;;;;;6942657;28;20427;-79
2022/06/24 01:21:34;;;;;;;6.00;1.80;;;21.20;99.90;;;;;;6942065;28;20435;-80
2022/06/24 01:24:57;;;;;;;5.65;1.42;;;21.20;99.90;;;;;;6941522;28;20773;-80
2022/06/24 01:28:19;;;;;;;4.03;1.50;;;21.20;99.90;;;;;;6935543;28;20805;-81
2022/06/24 01:31:41;;;;;;;5.05;1.42;;;21.20;99.90;;;;;;6942356;28;20430;-81
2022/06/24 01:35:05;;;;;;;5.55;1.40;;;21.20;99.90;;;;;;6942604;28;20435;-80
2022/06/24 01:38:28;;;;;;;6.20;1.50;;;21.30;99.90;;;;;;6941566;28;20446;-81
2022/06/24 01:41:51;;;;;;;6.07;1.77;;;21.20;99.90;;;;;;6944201;28;20435;-81
2022/06/24 01:45:13;;;;;;;7.40;1.50;;;21.20;99.90;;;;;;6943391;28;20908;-81
2022/06/24 01:48:35;;;;;;;6.10;1.90;;;21.20;99.90;;;;;;6941172;28;20938;-83
2022/06/24 01:51:59;;;;;;;6.50;1.60;;;21.10;99.90;;;;;;6941708;28;20474;-83
2022/06/24 01:55:22;;;;;;;7.60;1.60;;;21.10;99.90;;;;;;6941713;28;20438;-79
2022/06/24 01:58:44;;;;;;;6.53;1.70;;;21.10;99.90;;;;;;6940871;28;20439;-79
2022/06/24 02:02:07;;;;;;;6.28;1.60;;;21.00;99.90;;;;;;6942323;28;20427;-80
2022/06/24 02:05:29;;;;;;;5.53;1.52;;;21.00;99.90;;;;;;6942280;28;20446;-81
2022/06/24 02:08:52;;;;;;;5.13;1.70;;;21.10;99.90;;;;;;6940125;28;20445;-79
2022/06/24 02:15:56;;;;;;;5.28;1.77;;;21.00;99.90;;;;;;6941118;28;20435;-81
2022/06/24 02:19:20;;;;;;;6.18;1.80;;;20.90;99.90;;;;;;6941055;28;20430;-79
2022/06/24 02:22:42;;;;;;;5.63;1.73;;;20.80;99.90;;;;;;6941106;28;20435;-80
2022/06/24 02:26:05;;;;;;;5.70;1.73;;;20.80;99.90;;;;;;6940897;28;20439;-81
2022/06/24 02:29:28;;;;;;;6.03;1.60;;;20.80;99.90;;;;;;6941303;28;20482;-82
2022/06/24 02:32:50;;;;;;;5.97;1.77;;;20.80;99.90;;;;;;6941043;28;20500;-81
2022/06/24 02:36:12;;;;;;;5.53;1.70;;;20.70;99.90;;;;;;6940921;28;20894;-80
2022/06/24 02:39:34;;;;;;;5.15;2.10;;;20.60;99.90;;;;;;6940724;28;20484;-81
2022/06/24 02:42:58;;;;;;;5.72;1.80;;;20.60;99.90;;;;;;6937112;28;20435;-82
2022/06/24 02:46:22;;;;;;;5.60;1.60;;;20.40;99.90;;;;;;6914140;28;20471;-82
2022/06/24 02:49:44;;;;;;;5.35;1.50;;;20.30;99.90;;;;;;6925337;28;20492;-82
2022/06/24 02:53:06;;;;;;;4.53;1.50;;;20.30;99.90;;;;;;6940526;28;20481;-80
2022/06/24 02:56:28;;;;;;;4.45;1.40;;;20.10;99.90;;;;;;6941076;28;20427;-82
2022/06/24 02:59:51;;;;;;;6.55;1.70;;;20.10;99.90;;;;;;6942851;28;20441;-82
2022/06/24 03:03:16;;;;;;;7.03;1.85;;;20.10;99.90;;;;;;6940193;28;20796;-81
2022/06/24 03:06:38;;;;;;;6.93;1.90;;;20.00;99.90;;;;;;6938770;28;20445;-80
2022/06/24 03:10:01;;;;;;;5.85;1.80;;;19.90;99.90;;;;;;6936401;28;20548;-81
2022/06/24 03:13:23;;;;;;;7.93;2.05;;;19.90;99.90;;;;;;6940685;28;20485;-80
2022/06/24 03:16:45;;;;;;;5.57;1.88;;;19.80;99.90;;;;;;6940947;28;20881;-78
2022/06/24 03:20:10;;;;;;;7.65;2.10;;;19.70;99.90;;;;;;6935985;28;20448;-79
2022/06/24 03:23:32;;;;;;;8.15;1.90;;;19.70;99.90;;;;;;6940644;28;20468;-80
2022/06/24 03:26:54;;;;;;;5.30;1.80;;;19.80;99.90;;;;;;6939473;28;20435;-79
2022/06/24 03:30:16;;;;;;;7.85;2.10;;;19.90;99.90;;;;;;6938899;28;20462;-78
2022/06/24 03:33:39;;;;;;;6.13;2.10;;;19.90;99.90;;;;;;6938951;28;20442;-80
2022/06/24 03:37:02;;;;;;;5.10;1.90;;;20.00;99.90;;;;;;6940403;28;20426;-79
2022/06/24 03:40:24;;;;;;;5.30;1.90;;;20.00;99.90;;;;;;6938120;28;20485;-79
2022/06/24 03:43:46;;;;;;;6.82;2.00;;;19.90;99.90;;;;;;6938662;28;20485;-79
2022/06/24 03:47:08;;;;;;;7.78;2.17;;;19.90;99.90;;;;;;6940339;28;20852;-80
2022/06/24 03:50:31;;;;;;;6.88;2.25;;;19.80;99.90;;;;;;6938525;28;20466;-79
2022/06/24 03:53:54;;;;;;;6.13;2.00;;;19.80;99.90;;;;;;6941140;28;20466;-79
2022/06/24 03:57:16;;;;;;;7.37;2.30;;;19.80;99.90;;;;;;6945725;28;20473;-80
2022/06/24 04:00:38;;;;;;;7.57;2.20;;;19.80;99.90;;;;;;6943943;28;20438;-80
2022/06/24 04:04:00;;;;;;;7.53;2.20;;;19.90;99.90;;;;;;6945677;28;20955;-79
2022/06/24 04:07:22;;;;;;;7.18;2.28;;;19.90;99.90;;;;;;6945506;28;20523;-78
2022/06/24 04:10:46;;;;;;;6.75;2.30;;;20.00;99.90;;;;;;6943871;28;20435;-78
2022/06/24 04:14:08;;;;;;;7.22;2.28;;;20.00;99.90;;;;;;6943409;28;20441;-80
2022/06/24 04:17:30;;;;;;;7.07;2.20;;;20.10;99.90;;;;;;6944450;28;20461;-78
2022/06/24 04:20:52;;;;;;;6.22;2.22;;;20.20;99.90;;;;;;6942380;28;20479;-79
2022/06/24 04:24:14;;;;;;;8.13;2.30;;;20.40;99.90;;;;;;6945063;28;20441;-80
2022/06/24 04:27:38;;;;;;;6.70;2.70;;;20.50;99.90;;;;;;6944668;28;20430;-78
2022/06/24 04:31:00;;;;;;;9.20;2.40;;;20.50;99.90;;;;;;6944039;28;20793;-79
2022/06/24 04:34:22;;;;;;;10.50;2.80;;;20.60;99.90;;;;;;6945370;28;20855;-78
2022/06/24 04:37:45;;;;;;;5.88;2.50;;;20.60;99.90;;;;;;6944409;28;21017;-79
2022/06/24 04:41:13;;;;;;;7.75;2.70;;;20.60;99.90;;;;;;6929427;28;20906;-78
2022/06/24 04:44:37;;;;;;;10.77;3.20;;;20.40;99.90;;;;;;6919384;28;20440;-79
2022/06/24 04:47:59;;;;;;;7.88;2.85;;;20.20;99.90;;;;;;6930914;28;20923;-79
2022/06/24 04:51:21;;;;;;;7.03;2.80;;;20.00;99.90;;;;;;6944869;28;20904;-80
2022/06/24 04:54:43;;;;;;;8.15;2.97;;;19.90;99.90;;;;;;6944736;28;20919;-78
2022/06/24 04:58:05;;;;;;;9.98;3.10;;;19.90;99.90;;;;;;6944239;28;20458;-80
2022/06/24 05:01:29;;;;;;;9.30;3.40;;;19.90;99.90;;;;;;6945550;28;20462;-78
2022/06/24 05:04:51;;;;;;;8.63;3.07;;;19.70;99.90;;;;;;6945446;28;20846;-80
2022/06/24 05:08:13;;;;;;;7.95;3.33;;;19.80;99.90;;;;;;6948689;28;20520;-82
2022/06/24 05:11:36;;;;;;;8.05;2.97;;;19.90;99.90;;;;;;6973164;28;20431;-91
2022/06/24 05:14:58;;;;;;;8.55;2.67;;;20.00;99.90;;;;;;6965704;28;20431;-92
2022/06/24 05:18:21;;;;;;;9.73;3.20;;;20.30;99.90;;;;;;6946229;28;20502;-91
2022/06/24 05:21:44;;;;;;;7.83;2.80;;;20.40;99.90;;;;;;6954143;28;20777;-88
2022/06/24 05:25:08;;;;;;;7.32;3.00;;;20.50;99.90;;;;;;6947656;28;20447;-90
2022/06/24 05:28:30;;;;;;;6.95;2.92;;;20.60;99.90;;;;;;6946922;28;20572;-85
2022/06/24 05:31:52;;;;;;;7.57;2.88;;;20.70;99.90;;;;;;6950068;28;20435;-93
2022/06/24 05:35:16;;;;;;;7.40;3.23;;;20.80;99.90;;;;;;6958697;28;20481;-91
2022/06/24 05:38:38;;;;;;;7.20;3.03;;;20.80;99.90;;;;;;6960529;28;20411;-92
2022/06/24 05:42:00;;;;;;;10.00;3.35;;;20.60;99.90;;;;;;6961692;28;20584;-93
2022/06/24 05:45:22;;;;;;;9.80;3.30;;;20.40;99.90;;;;;;7269841;23;20436;-88
2022/06/24 05:48:44;;;;;;;8.23;3.13;;;20.30;99.90;;;;;;6936566;28;20436;-90
2022/06/24 05:52:09;;;;;;;7.47;2.80;;;20.10;99.90;;;;;;6937446;28;20440;-93
2022/06/24 05:55:31;;;;;;;6.40;2.88;;;20.30;99.90;;;;;;6893002;28;20435;-94
2022/06/24 05:58:53;;;;;;;7.40;2.63;;;20.50;99.90;;;;;;6903046;28;20441;-92
2022/06/24 06:02:15;;;;;;;8.50;3.03;;;20.70;99.90;;;;;;6922986;28;20448;-92
2022/06/24 06:05:38;;;;;;;8.40;2.80;;;20.70;99.90;;;;;;6939230;28;20444;-91
2022/06/24 06:09:02;;;;;;;7.82;2.30;;;20.60;99.90;;;;;;6918537;28;20440;-90
2022/06/24 06:12:24;;;;;;;9.48;2.60;;;20.80;99.90;;;;;;6915325;28;20511;-92
2022/06/24 06:15:47;;;;;;;7.20;2.60;;;21.00;99.90;;;;;;6929751;28;20446;-91
2022/06/24 06:19:09;;;;;;;9.50;2.83;;;21.10;99.90;;;;;;6924989;28;20917;-89
2022/06/24 06:22:31;;;;;;;7.43;2.53;;;21.20;99.90;;;;;;6914074;28;20451;-89
2022/06/24 06:25:54;;;;;;;8.52;2.58;;;21.30;99.90;;;;;;6927486;28;20436;-90
2022/06/24 06:29:17;;;;;;;8.02;2.38;;;21.30;99.90;;;;;;6922589;28;20902;-89
2022/06/24 06:32:39;;;;;;;8.23;2.50;;;21.40;99.90;;;;;;6944941;28;20442;-88
2022/06/24 06:36:05;;;;;;;5.70;2.10;;;21.50;99.90;;;;;;6921966;28;20425;-80
2022/06/24 06:39:27;;;;;;;7.93;2.53;;;21.60;99.90;;;;;;6914030;28;20515;-84
2022/06/24 06:42:55;;;;;;;7.47;2.20;;;21.60;99.90;;;;;;6916630;28;20441;-82
2022/06/24 06:46:17;;;;;;;8.23;2.05;;;21.80;99.90;;;;;;6916653;28;20440;-90
2022/06/24 06:49:39;;;;;;;7.47;2.17;;;21.90;99.90;;;;;;6914342;28;20883;-84
2022/06/24 06:53:02;;;;;;;8.55;2.38;;;21.80;99.90;;;;;;6915047;28;20459;-85
2022/06/24 06:56:24;;;;;;;6.40;2.22;;;21.80;99.90;;;;;;6913654;28;20440;-87
2022/06/24 06:59:49;;;;;;;9.02;2.53;;;21.90;99.90;;;;;;6914978;28;20445;-84
2022/06/24 07:03:11;;;;;;;7.13;2.45;;;21.80;99.90;;;;;;6913631;28;20432;-81
2022/06/24 07:06:33;;;;;;;8.23;2.50;;;21.90;99.90;;;;;;6914948;28;20524;-83
2022/06/24 07:09:55;;;;;;;7.05;1.90;;;21.80;99.90;;;;;;6913414;28;20459;-80
2022/06/24 07:13:19;;;;;;;7.13;1.83;;;21.80;99.90;;;;;;6913149;28;20447;-78
2022/06/24 07:16:43;;;;;;;5.95;1.50;;;21.90;99.90;;;;;;6895151;28;21318;-77
2022/06/24 07:20:06;;;;;;;6.95;1.80;;;21.90;99.90;;;;;;6883216;28;20923;-78
2022/06/24 07:23:28;;;;;;;9.82;1.83;;;22.10;99.90;;;;;;6883696;28;20863;-75
2022/06/24 07:26:51;;;;;;;6.97;1.65;;;22.20;99.90;;;;;;6901386;28;20453;-75
2022/06/24 07:30:14;;;;;;;5.70;1.57;;;22.20;99.90;;;;;;6910396;28;20946;-77
2022/06/24 07:33:38;;;;;;;4.93;1.52;;;22.30;98.70;;;;;;6909677;28;20498;-76
2022/06/24 07:37:00;;;;;;;5.22;1.55;;;22.30;98.10;;;;;;6908887;28;20475;-77
2022/06/24 07:40:23;;;;;;;5.63;1.60;;;22.40;98.40;;;;;;6909504;28;20479;-79
2022/06/24 07:43:45;;;;;;;5.35;1.70;;;22.50;99.10;;;;;;6908641;28;20440;-79
2022/06/24 07:47:07;;;;;;;5.32;1.73;;;22.70;99.80;;;;;;6909003;28;20719;-79
2022/06/24 07:50:30;;;;;;;4.68;1.83;;;22.70;98.70;;;;;;6910641;28;20440;-79
2022/06/24 07:53:52;;;;;;;6.13;1.80;;;22.70;99.20;;;;;;6909428;28;20475;-78
2022/06/24 07:57:14;;;;;;;4.45;1.50;;;22.70;97.80;;;;;;6910006;28;20436;-78
2022/06/24 08:00:36;;;;;;;5.95;1.70;;;22.70;97.90;;;;;;6906885;28;20916;-79
2022/06/24 08:03:59;;;;;;;5.10;1.60;;;22.70;97.50;;;;;;6909987;28;20436;-80
2022/06/24 08:07:22;;;;;;;4.68;1.30;;;22.70;97.60;;;;;;6902104;28;20483;-80
2022/06/24 08:10:44;;;;;;;5.60;1.60;;;22.60;97.30;;;;;;6909744;28;20440;-78
2022/06/24 08:14:06;;;;;;;6.78;1.60;;;22.70;97.70;;;;;;6910296;28;20440;-78
2022/06/24 08:17:29;;;;;;;6.65;1.50;;;22.70;97.80;;;;;;6911560;28;20444;-78
2022/06/24 08:20:51;;;;;;;6.65;1.77;;;22.70;98.40;;;;;;6911192;28;20491;-77
2022/06/24 08:24:14;;;;;;;5.95;1.50;;;22.70;97.70;;;;;;6909962;28;20847;-79
2022/06/24 08:27:37;;;;;;;4.78;1.60;;;22.60;97.90;;;;;;6908214;28;20441;-77
2022/06/24 08:30:59;;;;;;;5.88;1.60;;;22.60;97.20;;;;;;6911301;28;20473;-77
2022/06/24 08:34:22;;;;;;;5.72;1.70;;;22.60;97.70;;;;;;6908205;28;20440;-77
2022/06/24 08:37:44;;;;;;;6.15;1.60;;;22.70;97.70;;;;;;6910268;28;20441;-79
2022/06/24 08:41:08;;;;;;;5.18;1.75;;;22.70;97.10;;;;;;6913081;28;20471;-77
2022/06/24 08:44:31;;;;;;;5.40;1.70;;;22.80;96.50;;;;;;6905573;28;20444;-77
2022/06/24 08:47:54;;;;;;;4.50;1.40;;;22.80;96.00;;;;;;6916614;28;20428;-79
2022/06/24 08:51:17;;;;;;;6.30;1.60;;;22.90;96.50;;;;;;6912135;28;20440;-78
2022/06/24 08:54:43;;;;;;;5.32;1.63;;;23.00;96.10;;;;;;6914966;28;20472;-79
2022/06/24 08:58:09;;;;;;;6.45;1.73;;;23.10;95.90;;;;;;6914188;28;20472;-80
2022/06/24 09:01:31;;;;;;;6.63;1.80;;;23.30;96.20;;;;;;6911480;28;20798;-79
2022/06/24 09:04:59;;;;;;;6.10;1.70;;;23.50;94.70;;;;;;6910120;28;20504;-79
2022/06/24 09:08:22;;;;;;;7.25;1.67;;;23.50;95.20;;;;;;6913727;28;20717;-78
2022/06/24 09:11:44;;;;;;;7.03;1.70;;;23.70;94.90;;;;;;6912771;28;20479;-79
2022/06/24 09:15:11;;;;;;;5.07;1.75;;;23.90;94.90;;;;;;6910564;28;20477;-80
2022/06/24 09:18:33;;;;;;;5.17;1.70;;;23.90;94.20;;;;;;6911916;28;20441;-78
2022/06/24 09:22:00;;;;;;;6.30;1.70;;;23.80;93.90;;;;;;6913519;28;20992;-79
2022/06/24 09:25:22;;;;;;;6.00;1.60;;;23.90;94.70;;;;;;6913164;28;21003;-80
2022/06/24 09:28:44;;;;;;;7.28;1.80;;;24.00;94.10;;;;;;6912675;28;20518;-80
2022/06/24 09:32:11;;;;;;;6.87;1.97;;;24.20;93.80;;;;;;6908147;28;20477;-78
2022/06/24 09:35:36;;;;;;;5.63;1.70;;;24.30;94.40;;;;;;6922304;28;20443;-77
2022/06/24 09:39:00;;;;;;;6.67;1.80;;;24.30;94.00;;;;;;6913083;28;20479;-79
2022/06/24 09:42:22;;;;;;;5.23;1.60;;;24.20;93.30;;;;;;6910691;28;20476;-76
2022/06/24 09:45:47;;;;;;;4.75;1.77;;;24.20;94.40;;;;;;6910935;28;20779;-79
2022/06/24 09:49:13;;;;;;;5.97;1.73;;;24.20;93.50;;;;;;6915305;28;20552;-76
2022/06/24 09:52:35;;;;;;;4.97;1.65;;;24.20;93.70;;;;;;6923976;28;20478;-78
2022/06/24 09:56:00;;;;;;;6.13;1.70;;;24.20;93.70;;;;;;6940119;28;20442;-79
2022/06/24 10:03:05;;;;;;;5.78;1.63;;;24.60;94.00;;;;;;6912731;28;21093;-78
2022/06/24 10:06:29;;;;;;;5.83;1.80;;;24.70;92.40;;;;;;6909110;28;20918;-79
2022/06/24 10:09:53;;;;;;;5.20;1.60;;;24.80;93.70;;;;;;6907763;28;20794;-78
2022/06/24 10:13:26;;;;;;;6.70;1.60;;;24.90;92.20;;;;;;6910619;28;20862;-75
2022/06/24 10:16:50;;;;;;;5.30;1.52;;;24.90;91.10;;;;;;6911996;28;20447;-79
2022/06/24 10:20:13;;;;;;;4.35;1.33;;;24.80;91.10;;;;;;6909834;28;20807;-78
2022/06/24 10:23:43;;;;;;;5.05;1.40;;;24.90;91.00;;;;;;6909502;28;20444;-79
2022/06/24 10:27:05;;;;;;;3.35;1.40;;;25.00;90.80;;;;;;6897963;28;20448;-79
2022/06/24 10:30:58;;;;;;;4.25;1.50;;;24.90;88.70;;;;;;6910252;28;20473;-79
2022/06/24 10:34:43;;;;;;;3.80;1.20;;;25.00;89.30;;;;;;6912290;28;20460;-78
2022/06/24 10:38:05;;;;;;;3.83;1.20;;;24.90;88.40;;;;;;6910698;28;20440;-80
2022/06/24 10:41:39;;;;;;;6.70;1.50;;;25.00;86.40;;;;;;6910371;28;20540;-80
2022/06/24 10:45:04;;;;;;;3.58;1.40;;;24.80;87.90;;;;;;6909947;28;21062;-78
2022/06/24 10:48:57;;;;;;;4.63;1.38;;;24.90;86.00;;;;;;6915397;28;20441;-78
2022/06/24 10:52:33;;;;;;;6.20;1.30;;;25.00;87.70;;;;;;6907505;28;20436;-78
2022/06/24 10:55:55;;;;;;;3.90;1.15;;;25.10;86.70;;;;;;6907801;28;20520;-80
2022/06/24 10:59:21;;;;;;;3.05;1.20;;;25.20;83.00;;;;;;6910815;28;20930;-77
2022/06/24 11:02:43;;;;;;;3.60;1.30;;;25.30;82.60;;;;;;6910525;28;20441;-79
2022/06/24 11:06:09;;;;;;;3.45;1.10;;;25.30;82.40;;;;;;6910926;28;20453;-80
2022/06/24 11:09:31;;;;;;;3.57;1.37;;;25.40;83.80;;;;;;6912168;28;20447;-83
2022/06/24 11:12:58;;;;;;;4.22;1.30;;;25.40;84.00;;;;;;6919911;28;20702;-80
2022/06/24 11:16:21;;;;;;;2.72;0.93;;;25.50;84.60;;;;;;6910607;28;20843;-82
2022/06/24 11:19:43;;;;;;;4.07;1.17;;;25.60;79.70;;;;;;6905241;28;20506;-78
2022/06/24 11:23:10;;;;;;;3.65;1.05;;;25.40;80.40;;;;;;6908137;28;20496;-80
2022/06/24 11:26:33;;;;;;;3.05;1.00;;;25.40;81.30;;;;;;6909709;28;20949;-80
2022/06/24 11:29:57;;;;;;;4.20;1.10;;;25.40;79.40;;;;;;6911325;28;20479;-82
2022/06/24 11:33:21;;;;;;;3.75;1.10;;;25.40;79.60;;;;;;6907572;28;20484;-82
2022/06/24 11:36:43;;;;;;;3.72;1.08;;;25.60;80.70;;;;;;6909244;28;20436;-81
2022/06/24 11:40:07;;;;;;;3.72;1.10;;;25.60;77.90;;;;;;6906025;28;20514;-82
2022/06/24 11:43:30;;;;;;;3.35;1.00;;;25.50;79.90;;;;;;6910567;28;20471;-83
2022/06/24 11:46:52;;;;;;;4.03;1.10;;;25.60;78.70;;;;;;6898225;28;20476;-82
2022/06/24 11:50:20;;;;;;;3.05;1.00;;;25.60;76.30;;;;;;6910772;28;20443;-83
2022/06/24 11:53:43;;;;;;;5.05;1.10;;;25.70;76.40;;;;;;6907171;28;20451;-82
2022/06/24 11:57:10;;;;;;;4.07;1.40;;;25.70;76.50;;;;;;6909923;28;20447;-83
2022/06/24 12:00:35;;;;;;;3.88;1.00;;;25.80;78.50;;;;;;6908025;28;20527;-82
2022/06/24 12:04:01;;;;;;;3.90;1.10;;;25.90;77.80;;;;;;6907884;28;20551;-86
2022/06/24 12:07:24;;;;;;;3.42;1.10;;;26.00;78.00;;;;;;6912201;28;20440;-85
2022/06/24 12:10:52;;;;;;;3.10;1.10;;;26.10;77.90;;;;;;6932629;28;20442;-86
2022/06/24 12:14:18;;;;;;;2.95;1.00;;;26.30;77.00;;;;;;6914504;28;20443;-85
2022/06/24 12:17:52;;;;;;;3.97;1.20;;;26.30;77.50;;;;;;6914545;28;20468;-83
2022/06/24 12:21:14;;;;;;;3.92;1.08;;;26.30;76.90;;;;;;6889092;28;20504;-84
2022/06/24 12:24:40;;;;;;;3.10;1.08;;;26.30;75.20;;;;;;6912780;28;20933;-86
2022/06/24 12:28:19;;;;;;;3.90;1.20;;;26.20;75.10;;;;;;6888408;28;20564;-84
2022/06/24 12:31:52;;;;;;;3.38;1.10;;;26.20;74.20;;;;;;6908839;28;20451;-85
2022/06/24 12:35:14;;;;;;;4.40;1.20;;;26.10;74.60;;;;;;6916170;28;20452;-85
2022/06/24 12:38:37;;;;;;;5.40;1.20;;;26.10;74.10;;;;;;6916594;28;20934;-86
2022/06/24 12:42:01;;;;;;;4.07;1.10;;;26.00;74.60;;;;;;6916480;28;20948;-85
2022/06/24 12:45:25;;;;;;;3.15;1.10;;;26.00;75.50;;;;;;6914600;28;20479;-83
2022/06/24 12:52:33;;;;;;;5.15;1.33;;;25.90;75.30;;;;;;6913424;28;20440;-84
2022/06/24 12:55:55;;;;;;;3.25;1.00;;;25.90;76.30;;;;;;6907226;28;20486;-83
2022/06/24 12:59:19;;;;;;;3.75;1.40;;;25.80;76.30;;;;;;6909603;28;20433;-83
2022/06/24 13:02:45;;;;;;;5.50;1.20;;;25.70;76.40;;;;;;6909434;28;20451;-82
2022/06/24 13:06:07;;;;;;;4.43;1.00;;;25.70;76.30;;;;;;6914473;28;20489;-83
2022/06/24 13:09:29;;;;;;;3.95;1.40;;;25.60;77.60;;;;;;6911402;28;20786;-82
2022/06/24 13:12:54;;;;;;;4.00;1.40;;;25.50;78.80;;;;;;6913256;28;20445;-84
2022/06/24 13:16:17;;;;;;;5.60;1.80;;;25.30;82.00;;;;;;6917507;28;20456;-83
2022/06/24 13:19:39;;;;;;;5.57;1.70;;;25.20;84.60;;;;;;6912502;28;20477;-83
2022/06/24 13:23:02;;;;;;;3.67;1.40;;;25.20;84.90;;;;;;6916804;28;20433;-85
2022/06/24 13:26:24;;;;;;;5.00;1.40;;;25.10;85.20;;;;;;6911584;28;20499;-86
2022/06/24 13:29:47;;;;;;;5.03;1.80;;;25.10;84.90;;;;;;6915079;28;20776;-82
2022/06/24 13:33:11;;;;;;;4.57;2.07;;;25.00;85.30;;;;;;6914701;28;20441;-78
2022/06/24 13:36:33;;;;;;;4.55;1.67;;;24.90;85.80;;;;;;6910976;28;20944;-80
2022/06/24 13:39:55;;;;;;;5.15;1.42;;;24.80;86.60;;;;;;6913559;28;20482;-77
2022/06/24 13:43:20;;;;;;;4.60;1.45;;;24.50;89.30;;;;;;6909411;28;20444;-79
2022/06/24 13:46:42;;;;;;;5.07;1.65;;;24.10;91.40;;;;;;6915170;28;20456;-77
2022/06/24 13:50:07;;;;;;;6.30;1.80;;;23.70;93.60;;;;;;6916240;28;20437;-77
2022/06/24 13:53:29;;;;;;;7.07;2.10;;;23.20;95.00;;;;;;6911503;28;20441;-78
2022/06/24 13:56:52;;;;;;;9.35;2.08;;;22.80;99.10;;;;;;6913460;28;20429;-80
2022/06/24 14:00:14;;;;;;;7.93;2.00;;;21.90;99.90;;;;;;6907123;28;20432;-79
2022/06/24 14:03:36;;;;;;;3.43;1.30;;;21.50;99.90;;;;;;6912654;28;20436;-79
2022/06/24 14:07:00;;;;;;;6.47;1.92;;;21.50;99.90;;;;;;6913380;28;20445;-77
2022/06/24 14:10:22;;;;;;;5.57;1.60;;;21.60;99.90;;;;;;6911981;28;20941;-78
2022/06/24 14:13:44;;;;;;;6.07;1.75;;;21.60;99.90;;;;;;6902454;28;20453;-77
2022/06/24 14:17:07;;;;;;;4.43;1.58;;;21.50;99.90;;;;;;6905855;28;20900;-77
2022/06/24 14:20:29;;;;;;;4.03;1.45;;;21.50;99.90;;;;;;6904676;28;20480;-80
2022/06/24 14:27:32;;;;;;;3.78;1.33;;;21.20;99.90;;;;;;6903898;28;20799;-80
2022/06/24 14:30:54;;;;;;;3.53;1.50;;;21.10;99.90;;;;;;6900532;28;20440;-77
2022/06/24 14:34:17;;;;;;;3.53;1.33;;;20.80;99.90;;;;;;6909033;28;20436;-80
2022/06/24 14:41:21;;;;;;;3.90;1.40;;;20.40;99.90;;;;;;6897673;28;20419;-80
2022/06/24 14:44:43;;;;;;;4.90;1.73;;;20.20;99.90;;;;;;6895880;28;20439;-76
2022/06/24 14:48:06;;;;;;;3.92;1.63;;;20.10;99.90;;;;;;6910217;28;20479;-76
2022/06/24 14:51:28;;;;;;;5.30;1.85;;;20.20;99.90;;;;;;6886110;28;21314;-78
2022/06/24 14:54:50;;;;;;;5.53;2.00;;;20.00;99.90;;;;;;6898396;28;20952;-78
2022/06/24 14:58:14;;;;;;;4.68;1.83;;;19.90;99.90;;;;;;6907903;28;20937;-78
2022/06/24 15:01:36;;;;;;;6.80;1.90;;;19.90;99.90;;;;;;6913245;28;20540;-76
2022/06/24 15:04:58;;;;;;;6.10;2.10;;;19.70;99.90;;;;;;6909756;28;20822;-78
2022/06/24 15:08:20;;;;;;;5.70;2.00;;;19.60;99.90;;;;;;6907965;28;20700;-80
2022/06/24 15:11:42;;;;;;;4.45;1.88;;;19.50;99.90;;;;;;6911244;28;21057;-78
2022/06/24 15:15:07;;;;;;;6.80;2.00;;;19.50;99.90;;;;;;6914214;28;20433;-76
2022/06/24 15:18:29;;;;;;;5.90;1.85;;;19.40;99.90;;;;;;6911771;28;20493;-78
2022/06/24 15:21:51;;;;;;;5.22;1.98;;;19.50;99.90;;;;;;6912293;28;20437;-79
2022/06/24 15:25:13;;;;;;;5.57;2.10;;;19.60;99.90;;;;;;6909724;28;20481;-78
2022/06/24 15:28:35;;;;;;;4.75;1.90;;;19.70;99.90;;;;;;6908653;28;20476;-80
2022/06/24 15:32:01;;;;;;;5.77;2.10;;;19.90;99.90;;;;;;6904716;28;20522;-79
2022/06/24 15:35:23;;;;;;;4.38;1.70;;;20.00;99.90;;;;;;6909728;28;20475;-79
2022/06/24 15:38:45;;;;;;;4.97;1.90;;;20.10;99.90;;;;;;6906327;28;20440;-77
2022/06/24 15:42:08;;;;;;;5.35;1.70;;;20.20;99.90;;;;;;6909164;28;20440;-79
2022/06/24 15:45:30;;;;;;;5.38;2.00;;;20.20;99.90;;;;;;6891908;28;20440;-80
2022/06/24 15:48:53;;;;;;;3.50;1.60;;;20.30;99.90;;;;;;6906164;28;20492;-77
2022/06/24 15:52:15;;;;;;;4.90;1.80;;;20.30;99.90;;;;;;6915149;28;20921;-78
2022/06/24 15:55:37;;;;;;;4.55;1.90;;;20.40;99.90;;;;;;6909128;28;20460;-77
2022/06/24 15:58:59;;;;;;;5.25;1.95;;;20.50;99.90;;;;;;6915374;28;20500;-79
2022/06/24 16:02:21;;;;;;;5.23;2.00;;;20.50;99.90;;;;;;6913234;28;20472;-77
2022/06/24 16:05:45;;;;;;;6.18;1.98;;;20.50;99.90;;;;;;6913751;28;20953;-77
2022/06/24 16:09:07;;;;;;;4.88;1.90;;;20.40;99.90;;;;;;6913156;28;20506;-77
2022/06/24 16:12:30;;;;;;;5.10;2.10;;;20.30;99.90;;;;;;6912834;28;20479;-79
2022/06/24 16:15:52;;;;;;;5.70;2.20;;;20.30;99.90;;;;;;6912559;28;20440;-78
2022/06/24 16:19:14;;;;;;;4.43;1.90;;;20.40;99.90;;;;;;6914905;28;20475;-78
2022/06/24 16:22:39;;;;;;;4.70;1.95;;;20.60;99.90;;;;;;6907849;28;20541;-77
2022/06/24 16:29:41;;;;;;;6.20;2.17;;;20.70;99.90;;;;;;6911713;28;20791;-77
2022/06/24 16:33:03;;;;;;;5.40;2.17;;;20.70;99.90;;;;;;6905036;28;20437;-79
2022/06/24 16:36:25;;;;;;;4.80;2.30;;;20.80;99.90;;;;;;6909062;28;20472;-78
2022/06/24 16:39:48;;;;;;;4.20;2.20;;;20.80;99.90;;;;;;6905781;28;20449;-78
2022/06/24 16:43:21;;;;;;;7.85;2.30;;;20.80;99.90;;;;;;6910369;28;20961;-79
2022/06/24 16:46:43;;;;;;;5.63;2.10;;;20.70;99.90;;;;;;6910546;28;20448;-79
2022/06/24 16:50:06;;;;;;;4.95;1.98;;;20.60;99.90;;;;;;6912977;28;20472;-79
2022/06/24 16:53:33;;;;;;;4.55;1.63;;;20.60;99.90;;;;;;6910598;28;21007;-80
2022/06/24 16:56:57;;;;;;;3.58;1.60;;;20.60;99.90;;;;;;6911103;28;20436;-75
2022/06/24 17:00:19;;;;;;;4.10;1.77;;;20.60;99.90;;;;;;6910972;28;20444;-77
2022/06/24 17:03:42;;;;;;;4.03;1.30;;;20.40;99.90;;;;;;6913244;28;20499;-78
2022/06/24 17:07:04;;;;;;;3.95;1.30;;;20.40;99.90;;;;;;6913427;28;20531;-79
2022/06/24 17:10:26;;;;;;;4.60;1.30;;;20.30;99.90;;;;;;6908831;28;20436;-78
2022/06/24 17:13:50;;;;;;;3.50;1.15;;;20.10;99.90;;;;;;6911491;28;20464;-78
2022/06/24 17:17:12;;;;;;;3.97;1.40;;;20.00;99.90;;;;;;6912986;28;20468;-79
2022/06/24 17:20:34;;;;;;;2.80;1.25;;;20.00;99.90;;;;;;6906763;28;20453;-77
2022/06/24 17:23:56;;;;;;;3.90;1.50;;;19.80;99.90;;;;;;6911414;28;20503;-78
2022/06/24 17:27:19;;;;;;;4.00;1.50;;;19.80;99.90;;;;;;6912200;28;20484;-78
2022/06/24 17:30:42;;;;;;;4.20;1.50;;;19.80;99.90;;;;;;6906633;28;20468;-78
2022/06/24 17:34:04;;;;;;;4.57;1.60;;;19.70;99.90;;;;;;6906042;28;20542;-79
2022/06/24 17:37:27;;;;;;;4.93;1.85;;;19.60;99.90;;;;;;6911860;28;20440;-78
2022/06/24 17:40:50;;;;;;;4.70;2.00;;;19.40;99.90;;;;;;6908900;28;20450;-78
2022/06/24 17:44:12;;;;;;;4.18;1.60;;;19.30;99.90;;;;;;6910702;28;20436;-79
2022/06/24 17:47:36;;;;;;;4.57;1.50;;;19.30;99.90;;;;;;6912090;28;20498;-77
2022/06/24 17:50:58;;;;;;;9.68;4.60;;;19.30;99.90;;;;;;6910893;28;20436;-78
2022/06/24 17:54:20;;;;;;;7.67;4.10;;;19.20;99.90;;;;;;6908127;28;20475;-83
2022/06/24 17:57:42;;;;;;;3.88;1.50;;;19.30;99.90;;;;;;6910847;28;20447;-80
2022/06/24 18:01:07;;;;;;;3.60;1.40;;;19.30;99.90;;;;;;6909648;28;20535;-82